createdAt,value
2018-12-27T00:01:21.688Z,36.50
2018-12-27T00:04:01.656Z,36.63
2018-12-27T00:06:41.712Z,41.10
2018-12-27T00:09:21.701Z,42.90
2018-12-27T00:15:10.136Z,38.87
2018-12-27T00:17:50.098Z,33.03
2018-12-27T00:20:29.894Z,38.90
2018-12-27T00:23:10.039Z,39.27
2018-12-27T00:25:50.056Z,39.73
2018-12-27T00:28:30.832Z,42.30
2018-12-27T00:31:10.790Z,42.43
2018-12-27T00:33:50.756Z,44.13
2018-12-27T00:36:30.708Z,45.07
2018-12-27T00:39:10.716Z,48.67
2018-12-27T00:41:50.590Z,42.77
2018-12-27T00:44:30.612Z,50.80
2018-12-27T00:47:10.576Z,42.33
2018-12-27T00:49:50.853Z,45.30
2018-12-27T00:52:31.844Z,55.20
2018-12-27T00:55:11.948Z,47.33
2018-12-27T00:57:59.793Z,49.73
2018-12-27T01:00:39.767Z,49.00
2018-12-27T01:06:44.970Z,47.47
2018-12-27T01:09:24.952Z,48.50
2018-12-27T01:12:05.029Z,53.90
2018-12-27T01:14:44.979Z,49.70
2018-12-27T01:27:54.063Z,44.33
2018-12-27T01:30:34.029Z,41.10
2018-12-27T01:42:55.760Z,43.03
2018-12-27T01:45:35.975Z,44.97
2018-12-27T01:48:16.012Z,42.60
2018-12-27T01:50:55.903Z,41.23
2018-12-27T01:56:57.116Z,46.20
2018-12-27T01:59:37.364Z,46.77
2018-12-27T02:02:17.338Z,44.97
2018-12-27T02:05:17.184Z,45.93
2018-12-27T02:07:58.207Z,46.70
2018-12-27T02:10:57.994Z,48.20
2018-12-27T02:13:38.145Z,48.83
2018-12-27T02:16:18.130Z,49.30
2018-12-27T02:18:58.087Z,50.87
2018-12-27T02:21:38.167Z,49.73
2018-12-27T02:24:18.139Z,54.20
2018-12-27T02:26:58.116Z,57.33
2018-12-27T02:32:45.277Z,59.70
2018-12-27T02:35:25.407Z,58.47
2018-12-27T02:38:05.497Z,61.93
2018-12-27T02:40:45.593Z,52.10
2018-12-27T02:43:25.519Z,58.20
2018-12-27T02:49:27.744Z,63.63
2018-12-27T02:58:51.469Z,68.37
2018-12-27T03:01:31.421Z,69.67
2018-12-27T03:04:11.576Z,66.67
2018-12-27T03:06:51.495Z,70.60
2018-12-27T03:16:05.459Z,68.87
2018-12-27T03:18:45.434Z,68.60
2018-12-27T03:21:25.452Z,69.50
2018-12-27T03:24:05.506Z,67.10
2018-12-27T03:29:53.094Z,67.53
2018-12-27T03:36:12.144Z,68.50
2018-12-27T03:38:52.212Z,69.33
2018-12-27T03:41:52.181Z,71.23
2018-12-27T03:44:32.506Z,68.60
2018-12-27T03:47:13.496Z,77.37
2018-12-27T03:49:53.420Z,73.13
2018-12-27T03:52:33.524Z,69.57
2018-12-27T03:55:13.673Z,73.70
2018-12-27T03:57:53.556Z,72.10
2018-12-27T04:00:33.740Z,75.70
2018-12-27T04:03:13.681Z,72.23
2018-12-27T04:05:53.606Z,73.27
2018-12-27T04:12:12.782Z,81.80
2018-12-27T04:14:54.842Z,74.47
2018-12-27T04:17:35.087Z,77.00
2018-12-27T04:20:15.260Z,73.17
2018-12-27T04:22:55.282Z,71.40
2018-12-27T04:25:35.419Z,72.80
2018-12-27T04:28:15.395Z,67.27
2018-12-27T04:30:55.656Z,71.00
2018-12-27T04:33:35.708Z,72.30
2018-12-27T04:39:24.041Z,71.00
2018-12-27T04:42:03.854Z,66.90
2018-12-27T04:44:44.012Z,76.90
2018-12-27T04:50:49.362Z,72.30
2018-12-27T04:53:29.415Z,69.03
2018-12-27T04:56:09.227Z,69.53
2018-12-27T04:58:49.232Z,60.93
2018-12-27T05:04:37.453Z,63.53
2018-12-27T05:07:17.275Z,69.93
2018-12-27T05:09:57.257Z,69.87
2018-12-27T05:12:57.055Z,63.83
2018-12-27T05:19:02.827Z,63.90
2018-12-27T05:21:42.852Z,62.27
2018-12-27T05:24:22.964Z,63.60
2018-12-27T05:27:04.915Z,61.63
2018-12-27T05:29:45.020Z,66.27
2018-12-27T05:32:25.155Z,60.40
2018-12-27T05:35:05.226Z,60.83
2018-12-27T05:41:30.420Z,61.63
2018-12-27T05:44:10.515Z,64.03
2018-12-27T05:47:10.431Z,60.50
2018-12-27T05:49:50.433Z,56.43
2018-12-27T05:52:31.770Z,62.17
2018-12-27T05:59:11.397Z,61.90
2018-12-27T06:08:24.872Z,49.30
2018-12-27T06:11:05.829Z,51.37
2018-12-27T06:13:47.843Z,50.90
2018-12-27T06:16:27.895Z,53.50
2018-12-27T06:22:47.224Z,50.40
2018-12-27T06:28:45.283Z,47.70
2018-12-27T06:31:25.233Z,53.67
2018-12-27T06:34:05.415Z,48.23
2018-12-27T06:36:45.810Z,52.17
2018-12-27T06:39:25.657Z,45.00
2018-12-27T06:42:05.795Z,46.63
2018-12-27T06:44:45.652Z,51.10
2018-12-27T06:47:45.520Z,45.30
2018-12-27T06:54:04.949Z,48.80
2018-12-27T06:56:44.739Z,53.50
2018-12-27T06:59:24.776Z,46.50
2018-12-27T07:05:35.008Z,48.97
2018-12-27T07:11:24.266Z,44.13
2018-12-27T07:14:04.312Z,49.70
2018-12-27T07:16:44.328Z,44.37
2018-12-27T07:19:24.586Z,41.27
2018-12-27T07:22:04.775Z,42.63
2018-12-27T07:24:44.838Z,44.27
2018-12-27T07:27:24.986Z,41.90
2018-12-27T07:30:05.168Z,43.20
2018-12-27T07:32:45.313Z,43.17
2018-12-27T07:35:25.278Z,41.93
2018-12-27T07:38:05.389Z,52.27
2018-12-27T07:40:45.300Z,44.33
2018-12-27T07:43:25.454Z,41.17
2018-12-27T07:46:25.072Z,45.60
2018-12-27T07:49:05.426Z,44.57
2018-12-27T07:51:45.426Z,43.80
2018-12-27T07:54:25.555Z,46.40
2018-12-27T07:57:05.483Z,44.67
2018-12-27T07:59:45.611Z,48.97
2018-12-27T08:02:25.396Z,46.23
2018-12-27T08:05:05.500Z,44.90
2018-12-27T08:07:45.481Z,44.67
2018-12-27T08:10:25.515Z,39.37
2018-12-27T08:13:05.513Z,47.10
2018-12-27T08:15:46.344Z,41.40
2018-12-27T08:18:27.296Z,43.80
2018-12-27T08:24:28.392Z,43.93
2018-12-27T08:27:08.449Z,44.87
2018-12-27T08:29:48.445Z,43.20
2018-12-27T08:32:28.352Z,43.17
2018-12-27T08:35:11.618Z,47.63
2018-12-27T08:37:50.588Z,43.67
2018-12-27T08:40:30.621Z,51.10
2018-12-27T08:46:36.061Z,49.70
2018-12-27T08:52:24.287Z,45.80
2018-12-27T08:55:04.296Z,49.00
2018-12-27T08:57:44.276Z,46.10
2018-12-27T09:00:24.228Z,44.70
2018-12-27T09:03:04.013Z,45.53
2018-12-27T09:05:46.053Z,49.93
2018-12-27T09:08:25.900Z,54.10
2018-12-27T09:14:31.266Z,50.10
2018-12-27T09:17:11.238Z,54.60
2018-12-27T09:19:51.407Z,54.07
2018-12-27T09:22:32.255Z,50.70
2018-12-27T09:25:12.329Z,61.20
2018-12-27T09:27:52.450Z,57.67
2018-12-27T09:30:32.372Z,54.00
2018-12-27T09:33:12.388Z,55.93
2018-12-27T09:35:52.473Z,63.23
2018-12-27T09:38:32.485Z,70.03
2018-12-27T09:41:12.662Z,62.27
2018-12-27T09:43:52.773Z,63.13
2018-12-27T09:46:32.739Z,57.90
2018-12-27T09:49:13.788Z,59.77
2018-12-27T09:51:53.856Z,59.33
2018-12-27T09:54:34.100Z,58.97
2018-12-27T09:57:14.111Z,59.73
2018-12-27T09:59:55.032Z,63.97
2018-12-27T10:02:34.943Z,61.83
2018-12-27T10:05:15.961Z,67.70
2018-12-27T10:07:57.537Z,62.80
2018-12-27T10:10:38.172Z,69.73
2018-12-27T10:13:18.256Z,60.57
2018-12-27T10:19:23.721Z,65.50
2018-12-27T10:22:03.580Z,64.77
2018-12-27T10:24:43.871Z,65.73
2018-12-27T10:27:23.602Z,67.60
2018-12-27T10:30:07.556Z,67.33
2018-12-27T10:32:47.669Z,61.47
2018-12-27T10:35:27.773Z,64.60
2018-12-27T10:38:07.796Z,58.57
2018-12-27T10:44:13.581Z,61.83
2018-12-27T10:46:54.266Z,71.03
2018-12-27T10:49:34.181Z,70.53
2018-12-27T10:55:52.557Z,74.00
2018-12-27T10:58:32.487Z,73.50
2018-12-27T11:01:12.523Z,70.37
2018-12-27T11:03:53.252Z,73.60
2018-12-27T11:06:33.342Z,72.23
2018-12-27T11:16:18.112Z,79.20
2018-12-27T11:19:17.910Z,75.77
2018-12-27T11:28:31.469Z,81.20
2018-12-27T11:31:11.712Z,72.70
2018-12-27T11:37:28.165Z,70.50
2018-12-27T11:40:52.641Z,69.63
2018-12-27T11:43:39.042Z,64.87
2018-12-27T11:46:25.532Z,75.43
2018-12-27T11:49:32.261Z,71.87
2018-12-27T11:52:20.437Z,78.70
2018-12-27T11:55:08.608Z,73.70
2018-12-27T12:01:27.234Z,81.50
2018-12-27T12:04:06.811Z,90.40
2018-12-27T12:09:55.412Z,80.97
2018-12-27T12:15:43.712Z,77.03
2018-12-27T12:18:23.802Z,80.97
2018-12-27T12:21:04.105Z,81.50
2018-12-27T12:23:44.107Z,79.00
2018-12-27T12:26:24.344Z,76.07
2018-12-27T12:29:04.348Z,65.77
2018-12-27T12:31:44.321Z,65.47
2018-12-27T12:34:24.421Z,73.17
2018-12-27T12:37:04.419Z,67.80
2018-12-27T12:39:44.713Z,79.10
2018-12-27T12:42:32.866Z,72.13
2018-12-27T12:45:07.743Z,75.23
2018-12-27T12:47:48.747Z,72.53
2018-12-27T12:50:28.779Z,71.67
2018-12-27T12:53:08.576Z,63.70
2018-12-27T12:55:48.695Z,68.67
2018-12-27T12:58:28.722Z,62.40
2018-12-27T13:01:08.771Z,70.80
2018-12-27T13:03:48.723Z,64.07
2018-12-27T13:06:28.753Z,66.50
2018-12-27T13:09:08.715Z,70.43
2018-12-27T13:11:48.692Z,62.77
2018-12-27T13:21:01.357Z,80.73
2018-12-27T13:23:41.054Z,74.90
2018-12-27T13:26:20.921Z,82.67
2018-12-27T13:29:01.103Z,65.30
2018-12-27T13:34:49.269Z,78.40
2018-12-27T13:41:09.581Z,76.50
2018-12-27T13:43:49.486Z,72.90
2018-12-27T13:53:02.657Z,84.73
2018-12-27T13:55:42.766Z,88.33
2018-12-27T13:58:22.957Z,88.07
2018-12-27T14:01:03.000Z,82.57
2018-12-27T14:03:44.210Z,81.77
2018-12-27T14:06:24.215Z,82.00
2018-12-27T14:09:04.403Z,89.33
2018-12-27T14:11:44.409Z,90.43
2018-12-27T14:14:24.508Z,83.57
2018-12-27T14:17:04.395Z,94.30
2018-12-27T14:19:44.544Z,84.27
2018-12-27T14:22:24.325Z,88.20
2018-12-27T14:25:04.313Z,100.60
2018-12-27T14:27:44.328Z,98.67
2018-12-27T14:30:24.225Z,107.23
2018-12-27T14:33:04.429Z,105.07
2018-12-27T14:35:44.469Z,104.53
2018-12-27T14:38:24.704Z,104.87
2018-12-27T14:41:05.784Z,93.77
2018-12-27T14:43:45.838Z,105.57
2018-12-27T14:46:25.751Z,106.43
2018-12-27T14:49:05.947Z,113.77
2018-12-27T14:51:46.146Z,109.83
2018-12-27T14:54:26.203Z,117.50
2018-12-27T14:57:06.240Z,116.20
2018-12-27T15:03:25.571Z,111.17
2018-12-27T15:06:05.729Z,113.17
2018-12-27T15:08:45.728Z,115.37
2018-12-27T15:11:25.597Z,127.73
2018-12-27T15:14:05.819Z,127.20
2018-12-27T15:16:46.068Z,115.27
2018-12-27T15:19:26.000Z,116.37
2018-12-27T15:22:06.111Z,132.13
2018-12-27T15:24:47.249Z,135.13
2018-12-27T15:30:52.400Z,123.60
2018-12-27T15:33:32.217Z,123.37
2018-12-27T15:36:12.240Z,128.37
2018-12-27T15:38:52.234Z,132.63
2018-12-27T15:44:40.482Z,143.97
2018-12-27T15:51:01.325Z,126.00
2018-12-27T15:53:41.629Z,137.60
2018-12-27T15:56:21.579Z,146.70
2018-12-27T15:59:01.661Z,144.37
2018-12-27T16:01:41.780Z,132.93
2018-12-27T16:04:22.088Z,142.37
2018-12-27T16:07:02.291Z,150.37
2018-12-27T16:09:42.069Z,147.43
2018-12-27T16:12:22.363Z,152.40
2018-12-27T16:15:04.010Z,148.83
2018-12-27T16:20:52.653Z,136.47
2018-12-27T16:23:32.896Z,145.33
2018-12-27T16:26:12.877Z,165.87
2018-12-27T16:28:52.781Z,168.63
2018-12-27T16:31:32.976Z,156.83
2018-12-27T16:34:12.951Z,170.23
2018-12-27T16:36:53.108Z,153.87
2018-12-27T16:39:35.077Z,143.77
2018-12-27T16:42:21.647Z,131.33
2018-12-27T16:44:57.261Z,121.67
2018-12-27T16:47:37.114Z,127.47
2018-12-27T16:50:17.142Z,143.43
2018-12-27T16:52:57.167Z,123.93
2018-12-27T16:55:38.351Z,153.60
2018-12-27T16:58:18.173Z,130.33
2018-12-27T17:04:23.360Z,142.30
2018-12-27T17:07:03.208Z,132.83
2018-12-27T17:09:43.112Z,131.60
2018-12-27T17:12:23.037Z,130.90
2018-12-27T17:15:02.966Z,134.20
2018-12-27T17:17:43.051Z,133.00
2018-12-27T17:20:23.130Z,109.97
2018-12-27T17:26:32.218Z,120.40
2018-12-27T17:29:13.772Z,138.07
2018-12-27T17:31:53.370Z,132.37
2018-12-27T17:34:33.360Z,130.13
2018-12-27T17:37:13.335Z,140.40
2018-12-27T17:39:53.458Z,128.70
2018-12-27T17:42:33.668Z,128.40
2018-12-27T17:45:13.661Z,133.53
2018-12-27T17:47:53.540Z,133.50
2018-12-27T17:50:33.788Z,114.87
2018-12-27T17:53:13.599Z,119.37
2018-12-27T17:55:53.564Z,122.23
2018-12-27T17:58:33.907Z,122.00
2018-12-27T18:04:22.160Z,108.10
2018-12-27T18:07:03.901Z,125.60
2018-12-27T18:09:43.762Z,103.40
2018-12-27T18:12:23.788Z,108.03
2018-12-27T18:15:03.809Z,113.37
2018-12-27T18:17:43.629Z,105.93
2018-12-27T18:20:23.629Z,106.13
2018-12-27T18:23:03.541Z,86.87
2018-12-27T18:25:43.325Z,94.67
2018-12-27T18:28:23.227Z,98.50
2018-12-27T18:31:03.309Z,98.87
2018-12-27T18:33:43.278Z,101.20
2018-12-27T18:36:23.231Z,88.23
2018-12-27T18:39:03.589Z,87.97
2018-12-27T18:41:43.117Z,89.60
2018-12-27T18:44:22.980Z,96.83
2018-12-27T18:47:02.987Z,90.83
2018-12-27T18:49:44.996Z,87.50
2018-12-27T18:52:24.916Z,82.30
2018-12-27T18:55:04.865Z,77.27
2018-12-27T18:57:44.805Z,88.80
2018-12-27T19:00:24.813Z,81.23
2018-12-27T19:06:12.742Z,77.40
2018-12-27T19:08:53.270Z,78.40
2018-12-27T19:11:34.556Z,80.87
2018-12-27T19:17:53.759Z,82.33
2018-12-27T19:20:33.952Z,77.97
2018-12-27T19:23:13.873Z,80.00
2018-12-27T19:25:53.840Z,78.53
2018-12-27T19:28:34.263Z,65.57
2018-12-27T19:31:14.279Z,71.80
2018-12-27T19:33:54.165Z,67.10
2018-12-27T19:36:34.340Z,74.70
2018-12-27T19:39:14.516Z,85.43
2018-12-27T19:41:54.541Z,74.07
2018-12-27T19:44:34.751Z,72.47
2018-12-27T19:47:14.680Z,79.40
2018-12-27T19:49:54.842Z,73.17
2018-12-27T19:52:34.743Z,66.57
2018-12-27T19:55:14.773Z,71.47
2018-12-27T19:57:54.611Z,85.03
2018-12-27T20:00:34.680Z,72.10
2018-12-27T20:03:14.433Z,70.10
2018-12-27T20:05:54.515Z,78.33
2018-12-27T20:12:12.807Z,70.77
2018-12-27T20:14:52.760Z,75.07
2018-12-27T20:17:32.880Z,78.93
2018-12-27T20:20:12.911Z,77.53
2018-12-27T20:22:53.691Z,83.63
2018-12-27T20:25:33.909Z,69.70
2018-12-27T20:28:13.992Z,77.73
2018-12-27T20:30:54.118Z,70.57
2018-12-27T20:33:34.110Z,75.70
2018-12-27T20:36:13.983Z,71.47
2018-12-27T20:38:53.803Z,76.70
2018-12-27T20:41:33.885Z,74.43
2018-12-27T20:44:13.936Z,80.80
2018-12-27T20:46:53.916Z,75.10
2018-12-27T20:49:34.227Z,73.63
2018-12-27T20:52:14.208Z,70.03
2018-12-27T20:54:53.982Z,70.33
2018-12-27T20:57:34.125Z,72.30
2018-12-27T21:00:14.673Z,80.43
2018-12-27T21:02:55.172Z,72.60
2018-12-27T21:05:35.204Z,72.73
2018-12-27T21:08:15.121Z,68.53
2018-12-27T21:10:55.029Z,73.43
2018-12-27T21:13:35.036Z,74.13
2018-12-27T21:16:17.072Z,83.73
2018-12-27T21:18:57.155Z,73.10
2018-12-27T21:25:16.224Z,73.40
2018-12-27T21:27:56.048Z,79.53
2018-12-27T21:30:40.371Z,82.80
2018-12-27T21:33:22.261Z,83.40
2018-12-27T21:36:02.148Z,82.27
2018-12-27T21:38:41.954Z,76.87
2018-12-27T21:41:22.083Z,80.87
2018-12-27T21:44:02.132Z,80.93
2018-12-27T21:46:41.796Z,78.67
2018-12-27T21:49:22.143Z,83.43
2018-12-27T21:52:02.534Z,82.23
2018-12-27T21:54:42.471Z,73.07
2018-12-27T21:57:22.594Z,72.43
2018-12-27T22:00:02.889Z,70.27
2018-12-27T22:02:42.878Z,72.17
2018-12-27T22:05:23.170Z,67.13
2018-12-27T22:08:03.186Z,66.70
2018-12-27T22:10:43.140Z,65.20
2018-12-27T22:13:23.245Z,65.80
2018-12-27T22:16:03.269Z,67.00
2018-12-27T22:18:43.468Z,57.90
2018-12-27T22:21:23.484Z,54.30
2018-12-27T22:24:03.784Z,55.67
2018-12-27T22:26:43.695Z,54.53
2018-12-27T22:29:23.760Z,49.63
2018-12-27T22:32:03.886Z,50.27
2018-12-27T22:38:21.156Z,55.03
2018-12-27T22:41:21.087Z,56.83
2018-12-27T22:47:26.344Z,53.17
2018-12-27T22:50:06.411Z,57.80
2018-12-27T22:52:46.687Z,53.70
2018-12-27T22:55:27.008Z,58.10
2018-12-27T22:58:06.966Z,57.77
2018-12-27T23:03:55.068Z,54.60
2018-12-27T23:06:36.120Z,63.30
2018-12-27T23:09:18.179Z,64.27
2018-12-27T23:12:00.295Z,67.40
2018-12-27T23:14:40.305Z,64.37
2018-12-27T23:17:20.421Z,65.27
2018-12-27T23:20:00.285Z,62.20
2018-12-27T23:22:40.237Z,66.53
2018-12-27T23:25:20.187Z,69.30
2018-12-27T23:28:00.035Z,67.77
2018-12-27T23:30:39.791Z,69.90
2018-12-27T23:33:19.975Z,62.43
2018-12-27T23:35:59.705Z,70.20
2018-12-27T23:38:39.567Z,66.17
2018-12-27T23:41:19.596Z,72.23
2018-12-27T23:43:59.571Z,72.73
2018-12-27T23:46:39.789Z,67.73
2018-12-27T23:49:20.468Z,60.53
2018-12-27T23:52:00.315Z,70.47
2018-12-27T23:54:40.457Z,68.93
2018-12-27T23:57:20.733Z,63.07
